Time;durP1;ratioP1;P1;durP2;ratioP2;P2;SDS_P1;SDS_P2;PMS_P1;PMS_P2;Temp;Humidity;BMP_temperature;BMP_pressure;BME280_temperature;BME280_humidity;BME280_pressure;Samples;Min_cycle;Max_cycle;Signal;HPM_P1;HPM_P2
2022/06/27 00:02:14;;;;;;;2.60;1.90;;;;;;;16.35;85.45;97584.09;6205779;28;20541;-89
2022/06/27 00:05:16;;;;;;;2.20;2.03;;;;;;;16.33;85.42;97583.41;6187714;28;20232;-89
2022/06/27 00:08:18;;;;;;;2.10;2.00;;;;;;;16.30;85.73;97581.06;6187473;28;20645;-89
2022/06/27 00:11:21;;;;;;;2.43;1.73;;;;;;;16.31;85.57;97587.22;6203684;28;20324;-89
2022/06/27 00:14:24;;;;;;;1.77;1.67;;;;;;;16.28;85.68;97583.06;6204073;28;20274;-90
2022/06/27 00:17:28;;;;;;;3.17;2.20;;;;;;;16.28;85.66;97582.22;6203687;28;20774;-89
2022/06/27 00:25:06;;;;;;;3.87;1.80;;;;;;;16.20;86.11;97583.88;6203752;28;20703;-89
2022/06/27 00:28:08;;;;;;;2.20;2.00;;;;;;;16.23;86.07;97572.06;6187261;28;20708;-89
2022/06/27 00:31:10;;;;;;;1.80;1.70;;;;;;;16.23;86.21;97575.56;6204258;28;20224;-90
2022/06/27 00:34:12;;;;;;;2.40;1.90;;;;;;;16.22;86.08;97581.03;6203888;28;20221;-89
2022/06/27 00:37:14;;;;;;;4.13;2.30;;;;;;;16.22;86.26;97583.72;6204232;28;20714;-89
2022/06/27 00:40:17;;;;;;;2.27;2.10;;;;;;;16.21;86.46;97582.03;6204520;28;20233;-89
2022/06/27 00:43:19;;;;;;;1.87;1.77;;;;;;;16.24;86.47;97584.38;6203680;28;20236;-89
2022/06/27 00:46:22;;;;;;;1.80;1.70;;;;;;;16.20;86.56;97581.19;6187405;28;20412;-89
2022/06/27 00:49:24;;;;;;;2.50;1.80;;;;;;;16.20;86.64;97572.38;6186530;28;20232;-89
2022/06/27 00:52:33;;;;;;;2.20;2.00;;;;;;;16.19;86.61;97570.72;6185897;28;20737;-89
2022/06/27 00:55:36;;;;;;;3.73;2.10;;;;;;;16.17;86.53;97573.53;6187252;28;20653;-89
2022/06/27 00:58:38;;;;;;;2.80;1.97;;;;;;;16.17;86.78;97575.38;6186764;28;21424;-89
2022/06/27 01:01:46;;;;;;;2.10;1.90;;;;;;;16.15;86.79;97569.38;6187538;28;20259;-89
2022/06/27 01:04:54;;;;;;;3.07;2.10;;;;;;;16.11;87.01;97568.84;6165513;28;20229;-89
2022/06/27 01:07:56;;;;;;;3.30;2.63;;;;;;;16.14;87.71;97568.53;6177212;28;20241;-89
2022/06/27 01:10:58;;;;;;;2.17;2.07;;;;;;;16.14;87.76;97573.88;6199163;28;20241;-89
2022/06/27 01:14:01;;;;;;;2.67;2.47;;;;;;;16.19;88.21;97570.72;6188628;28;20276;-89
2022/06/27 01:17:03;;;;;;;2.83;2.03;;;;;;;16.20;87.77;97565.22;6205211;28;20275;-89
2022/06/27 01:20:07;;;;;;;2.30;2.10;;;;;;;16.22;87.73;97568.56;6207086;28;20251;-89
2022/06/27 01:23:11;;;;;;;2.80;2.03;;;;;;;16.26;87.69;97568.25;6190389;28;20232;-89
2022/06/27 01:26:13;;;;;;;3.50;2.50;;;;;;;16.26;87.49;97570.91;6207717;28;20270;-89
2022/06/27 01:29:17;;;;;;;2.80;2.60;;;;;;;16.19;88.21;97568.88;6191096;28;20707;-89
2022/06/27 01:32:20;;;;;;;2.83;2.60;;;;;;;16.20;88.41;97565.22;6177029;28;20230;-89
2022/06/27 01:35:42;;;;;;;3.17;2.47;;;;;;;16.24;88.68;97565.75;6195149;28;20327;-89
2022/06/27 01:38:44;;;;;;;3.57;2.57;;;;;;;16.26;88.35;97565.59;6149318;28;20271;-89
2022/06/27 01:41:51;;;;;;;3.60;2.60;;;;;;;16.28;88.23;97568.91;6165133;28;20259;-89
2022/06/27 01:44:56;;;;;;;3.00;2.70;;;;;;;16.28;88.46;97579.56;6165650;28;20264;-89
2022/06/27 01:47:58;;;;;;;2.80;2.20;;;;;;;16.30;88.49;97574.91;6164269;28;20331;-89
2022/06/27 01:51:02;;;;;;;4.70;2.53;;;;;;;16.32;88.71;97572.94;6177479;28;20241;-90
2022/06/27 01:54:08;;;;;;;4.87;2.40;;;;;;;16.32;88.98;97578.25;6182052;28;20308;-89
2022/06/27 01:57:10;;;;;;;3.57;2.57;;;;;;;16.30;88.61;97575.75;6180982;28;20217;-89
2022/06/27 02:00:15;;;;;;;2.53;2.33;;;;;;;16.29;89.16;97570.56;6148668;28;20197;-89
2022/06/27 02:03:35;;;;;;;2.47;2.27;;;;;;;16.32;88.89;97571.09;6168305;28;20233;-89
2022/06/27 02:06:39;;;;;;;4.47;2.73;;;;;;;16.30;88.59;97569.59;6158358;28;20576;-90
2022/06/27 02:09:44;;;;;;;3.97;2.57;;;;;;;16.27;88.44;97577.91;6154780;28;20229;-89
2022/06/27 02:12:47;;;;;;;2.60;2.27;;;;;;;16.25;88.63;97578.06;6174691;28;20317;-89
2022/06/27 02:20:06;;;;;;;4.47;2.30;;;;;;;16.21;88.89;97587.38;6181841;28;20229;-89
2022/06/27 02:23:08;;;;;;;2.37;2.13;;;;;;;16.21;88.75;97588.19;6197613;28;20260;-89
2022/06/27 02:26:11;;;;;;;3.37;2.30;;;;;;;16.17;88.84;97584.19;6182690;28;20225;-89
2022/06/27 02:29:14;;;;;;;2.70;2.47;;;;;;;16.12;89.13;97588.31;6197418;28;20229;-89
2022/06/27 02:32:16;;;;;;;3.20;2.80;;;;;;;16.16;88.96;97590.53;6182586;28;20256;-89
2022/06/27 02:35:19;;;;;;;2.47;2.27;;;;;;;16.13;89.16;97593.50;6175972;28;20233;-89
2022/06/27 02:38:22;;;;;;;2.83;2.33;;;;;;;16.14;89.28;97583.69;6182121;28;20233;-89
2022/06/27 02:41:27;;;;;;;2.93;2.30;;;;;;;16.15;89.20;97583.53;6198033;28;20287;-89
2022/06/27 02:44:30;;;;;;;3.07;2.67;;;;;;;16.13;89.19;97580.19;6181416;28;20240;-89
2022/06/27 02:47:38;;;;;;;2.57;2.27;;;;;;;16.11;89.02;97586.66;6180301;28;20593;-89
2022/06/27 02:50:43;;;;;;;2.67;2.47;;;;;;;16.11;89.44;97584.84;6181979;28;20361;-89
2022/06/27 02:53:54;;;;;;;2.93;2.73;;;;;;;16.10;89.45;97580.50;6167256;28;20234;-89
2022/06/27 02:57:51;;;;;;;3.90;2.97;;;;;;;16.10;nan;97587.66;6183527;28;20261;-89
2022/06/27 03:05:26;;;;;;;2.63;2.43;;;;;;;16.10;89.77;97587.66;6184277;28;20315;-89
2022/06/27 03:08:57;;;;;;;3.77;3.00;;;;;;;16.12;89.60;97580.34;6182393;28;20606;-89
2022/06/27 03:12:00;;;;;;;2.70;2.50;;;;;;;16.15;89.64;97583.53;6115504;28;20374;-91
2022/06/27 03:15:07;;;;;;;3.00;2.70;;;;;;;16.19;89.88;97587.53;6115840;29;20254;-89
2022/06/27 03:18:14;;;;;;;2.60;2.40;;;;;;;16.17;89.67;97589.50;6119234;29;20653;-89
2022/06/27 03:21:46;;;;;;;6.00;2.80;;;;;;;16.20;89.95;97597.19;6098848;29;20242;-89
2022/06/27 03:24:48;;;;;;;2.83;2.53;;;;;;;16.24;89.63;97600.38;6095329;29;20234;-89
2022/06/27 03:27:51;;;;;;;2.83;2.47;;;;;;;16.25;89.62;97588.72;6116226;29;20226;-89
2022/06/27 03:35:08;;;;;;;3.10;2.90;;;;;;;16.23;90.27;97586.22;6118581;28;20265;-89
2022/06/27 03:38:14;;;;;;;3.43;2.53;;;;;;;16.27;90.07;97591.22;6130506;29;20322;-88
2022/06/27 03:41:17;;;;;;;3.00;2.80;;;;;;;16.30;90.14;97589.06;6114245;29;20261;-89
2022/06/27 03:44:20;;;;;;;3.10;2.80;;;;;;;16.33;89.87;97594.06;6114140;29;20246;-89
2022/06/27 03:47:45;;;;;;;3.13;2.63;;;;;;;16.38;89.89;97580.25;6141827;28;20245;-89
2022/06/27 03:51:06;;;;;;;4.03;2.67;;;;;;;16.40;90.07;97584.44;6179742;28;20229;-90
2022/06/27 03:54:08;;;;;;;3.03;2.77;;;;;;;16.46;90.34;97582.97;6180517;28;20567;-90
2022/06/27 03:57:10;;;;;;;3.10;2.90;;;;;;;16.51;89.93;97585.97;6163412;28;20308;-89
2022/06/27 04:00:13;;;;;;;4.03;3.20;;;;;;;16.52;90.23;97583.16;6179267;28;20217;-90
2022/06/27 04:03:16;;;;;;;3.10;2.80;;;;;;;16.58;90.33;97571.81;6196027;28;20791;-89
2022/06/27 04:06:23;;;;;;;3.93;3.20;;;;;;;16.62;90.18;97574.19;6180580;28;20237;-89
2022/06/27 04:09:26;;;;;;;3.43;3.13;;;;;;;16.63;90.23;97571.38;6195970;28;20253;-89
2022/06/27 04:12:28;;;;;;;4.87;3.40;;;;;;;16.67;90.41;97562.03;6179939;28;20704;-89
2022/06/27 04:20:24;;;;;;;3.03;2.73;;;;;;;16.74;90.54;97565.75;6161234;28;20261;-90
2022/06/27 04:23:32;;;;;;;3.70;3.40;;;;;;;16.78;90.91;97568.88;6160818;28;20729;-89
2022/06/27 04:26:49;;;;;;;3.20;2.90;;;;;;;16.82;90.82;97568.41;6183300;28;20743;-89
2022/06/27 04:29:51;;;;;;;3.93;3.50;;;;;;;16.88;90.91;97554.41;6182878;28;20243;-89
2022/06/27 04:32:53;;;;;;;3.57;3.27;;;;;;;16.91;91.46;97553.25;6186020;28;20294;-89
2022/06/27 04:35:55;;;;;;;3.53;3.23;;;;;;;16.97;91.21;97555.25;6180939;28;20717;-89
2022/06/27 04:38:58;;;;;;;5.30;3.37;;;;;;;17.05;91.09;97554.44;6187032;28;20232;-89
2022/06/27 04:42:32;;;;;;;3.43;3.13;;;;;;;17.09;91.02;97563.75;6156230;28;20591;-90
2022/06/27 04:50:11;;;;;;;3.37;3.03;;;;;;;17.23;91.09;97565.75;6204400;28;20217;-89
2022/06/27 04:53:13;;;;;;;3.13;2.90;;;;;;;17.31;91.15;97565.75;6187152;28;20700;-89
2022/06/27 04:56:16;;;;;;;3.60;3.33;;;;;;;17.38;90.91;97564.06;6203364;28;20228;-90
2022/06/27 04:59:20;;;;;;;3.47;3.17;;;;;;;17.43;90.73;97559.06;6191990;28;20742;-89
2022/06/27 05:02:33;;;;;;;3.37;2.93;;;;;;;17.48;90.97;97567.38;6191210;28;20227;-89
2022/06/27 05:05:36;;;;;;;4.50;3.17;;;;;;;17.56;90.69;97566.56;6200329;28;20256;-89
2022/06/27 05:08:38;;;;;;;3.70;3.00;;;;;;;17.63;90.65;97565.75;6174216;28;20229;-89
2022/06/27 05:11:42;;;;;;;3.87;3.13;;;;;;;17.66;90.62;97557.41;6196187;28;20232;-89
2022/06/27 05:14:44;;;;;;;2.90;2.57;;;;;;;17.71;90.50;97556.88;6207322;28;20358;-89
2022/06/27 05:17:47;;;;;;;3.50;3.20;;;;;;;17.76;90.40;97557.22;6184725;28;20623;-89
2022/06/27 05:20:49;;;;;;;5.63;3.60;;;;;;;17.82;90.49;97564.53;6222013;28;20323;-89
2022/06/27 05:23:52;;;;;;;4.20;3.50;;;;;;;17.92;90.38;97570.50;6193884;28;20235;-89
2022/06/27 05:26:54;;;;;;;3.47;2.97;;;;;;;18.00;90.14;97572.31;6191215;28;20235;-89
2022/06/27 05:29:56;;;;;;;4.63;3.50;;;;;;;18.10;90.05;97577.44;6176660;28;20236;-90
2022/06/27 05:32:59;;;;;;;4.03;2.83;;;;;;;18.17;90.14;97570.41;6182872;28;20228;-90
2022/06/27 05:36:04;;;;;;;5.23;3.17;;;;;;;18.22;89.96;97573.38;6206812;28;20240;-88
2022/06/27 05:39:06;;;;;;;4.73;3.37;;;;;;;18.26;90.22;97564.03;6190009;28;20205;-89
2022/06/27 05:42:08;;;;;;;4.30;2.93;;;;;;;18.33;90.02;97570.34;6206869;28;20209;-89
2022/06/27 05:45:11;;;;;;;4.33;3.37;;;;;;;18.38;90.36;97574.13;6206340;28;20707;-90
2022/06/27 05:48:33;;;;;;;4.10;3.33;;;;;;;18.43;90.45;97574.47;6160341;28;20234;-89
2022/06/27 05:51:52;;;;;;;3.93;3.50;;;;;;;18.58;90.18;97571.88;6140439;28;20234;-89
2022/06/27 05:54:55;;;;;;;4.47;3.30;;;;;;;18.71;89.75;97576.66;6140973;28;20256;-88
2022/06/27 05:57:58;;;;;;;3.77;3.20;;;;;;;18.79;89.27;97580.13;6146062;28;20233;-89
2022/06/27 06:05:17;;;;;;;3.93;3.03;;;;;;;19.22;88.67;97580.47;6156895;28;20316;-90
2022/06/27 06:08:21;;;;;;;7.80;3.53;;;;;;;19.38;88.13;97580.34;6155590;28;20234;-88
2022/06/27 06:11:24;;;;;;;4.67;3.60;;;;;;;19.53;87.70;97586.59;6156539;28;20626;-89
2022/06/27 06:14:28;;;;;;;3.60;3.30;;;;;;;19.71;87.42;97596.13;6130811;28;20329;-89
2022/06/27 06:17:50;;;;;;;5.37;3.57;;;;;;;19.87;86.94;97590.59;6130997;28;20237;-90
2022/06/27 06:20:52;;;;;;;4.30;3.77;;;;;;;20.12;86.02;97600.03;6206527;28;20236;-89
2022/06/27 06:23:55;;;;;;;4.17;3.40;;;;;;;20.38;84.42;97598.75;6205490;28;20235;-89
2022/06/27 06:27:00;;;;;;;3.27;2.90;;;;;;;20.73;81.78;97602.50;6183044;28;20320;-90
2022/06/27 06:30:03;;;;;;;4.23;2.70;;;;;;;21.38;78.83;97606.88;6188514;28;21181;-89
2022/06/27 06:33:07;;;;;;;4.97;2.90;;;;;;;21.66;77.35;97607.78;6187126;28;20243;-90
2022/06/27 06:36:11;;;;;;;4.97;2.83;;;;;;;21.92;76.23;97609.81;6188671;28;20240;-90
2022/06/27 06:39:14;;;;;;;2.90;2.60;;;;;;;22.15;74.73;97604.22;6203349;28;20220;-89
2022/06/27 06:42:16;;;;;;;5.13;2.77;;;;;;;22.48;72.63;97607.88;6187718;28;20204;-90
2022/06/27 06:50:18;;;;;;;3.30;2.90;;;;;;;23.18;71.63;97614.78;6205967;28;20228;-91
2022/06/27 06:53:21;;;;;;;5.90;2.97;;;;;;;23.49;69.76;97612.34;6189234;28;20776;-90
2022/06/27 06:56:24;;;;;;;3.03;2.40;;;;;;;23.63;69.19;97609.69;6204236;28;20346;-91
2022/06/27 06:59:26;;;;;;;2.77;2.57;;;;;;;24.05;65.35;97611.94;6203968;28;20232;-89
2022/06/27 07:02:48;;;;;;;3.63;2.57;;;;;;;24.41;64.85;97605.22;6187729;28;20236;-90
2022/06/27 07:05:51;;;;;;;4.33;2.47;;;;;;;24.59;63.78;97606.19;6180152;28;20248;-91
2022/06/27 07:08:55;;;;;;;2.57;2.37;;;;;;;24.73;64.93;97616.94;6187923;28;20247;-91
2022/06/27 07:11:57;;;;;;;3.53;2.47;;;;;;;25.00;62.48;97610.41;6188210;28;20731;-90
2022/06/27 07:15:01;;;;;;;2.80;2.30;;;;;;;25.26;63.00;97620.19;6188114;28;20378;-90
2022/06/27 07:18:10;;;;;;;2.70;2.43;;;;;;;25.40;62.76;97610.16;6172399;28;20569;-90
2022/06/27 07:21:19;;;;;;;2.97;2.22;;;;;;;25.40;63.07;97610.16;6194250;28;20386;-89
2022/06/27 07:24:22;;;;;;;3.20;2.60;;;;;;;25.52;62.44;97606.53;6204735;28;20698;-90
2022/06/27 07:27:24;;;;;;;3.33;2.53;;;;;;;25.65;62.54;97606.44;6184843;28;20235;-90
2022/06/27 07:30:28;;;;;;;3.15;2.40;;;;;;;26.09;61.11;97601.88;6141977;28;1295379;-90
2022/06/27 07:33:51;;;;;;;3.33;2.42;;;;;;;26.41;60.92;97600.75;6184115;28;20223;-90
2022/06/27 07:36:54;;;;;;;6.05;2.75;;;;;;;26.40;58.18;97603.69;6185023;28;20787;-90
2022/06/27 07:39:56;;;;;;;4.05;2.25;;;;;;;26.62;55.92;97602.16;6184308;28;20263;-91
2022/06/27 07:42:58;;;;;;;3.05;2.40;;;;;;;27.03;57.05;97606.88;6179653;28;20530;-89
2022/06/27 07:50:39;;;;;;;2.58;2.22;;;;;;;27.46;55.33;97603.94;6202312;28;20283;-91
2022/06/27 07:53:39;;;;;;;2.90;2.10;;;;;;;27.87;54.92;97599.53;6203692;28;20577;-91
2022/06/27 07:56:43;;;;;;;4.93;2.30;;;;;;;27.92;54.06;97602.41;6186760;28;20596;-90
2022/06/27 08:00:04;;;;;;;3.92;2.30;;;;;;;27.89;52.79;97602.84;6186483;28;20280;-89
2022/06/27 08:06:35;;;;;;;3.67;2.25;;;;;;;28.25;52.92;97601.81;6203537;28;20704;-88
2022/06/27 08:09:38;;;;;;;4.63;2.35;;;;;;;28.61;52.27;97598.00;6186924;28;20228;-88
2022/06/27 08:12:40;;;;;;;4.18;2.30;;;;;;;28.91;51.75;97593.19;6187771;28;20686;-90
2022/06/27 08:19:58;;;;;;;4.75;2.38;;;;;;;29.66;48.19;97597.56;6188131;28;20231;-90
2022/06/27 08:23:02;;;;;;;2.97;2.17;;;;;;;29.79;47.59;97590.97;6188240;28;20232;-90
2022/06/27 08:26:06;;;;;;;3.75;2.13;;;;;;;30.03;49.34;97593.31;6186970;28;20251;-87
2022/06/27 08:29:08;;;;;;;2.58;2.08;;;;;;;30.12;48.92;97590.97;6187316;28;20228;-88
2022/06/27 08:32:23;;;;;;;2.55;1.88;;;;;;;30.30;46.49;97596.13;6205186;28;20569;-88
2022/06/27 08:35:25;;;;;;;3.33;2.08;;;;;;;30.90;47.65;97586.28;6207635;28;20315;-87
2022/06/27 08:38:28;;;;;;;4.78;2.17;;;;;;;31.28;45.96;97588.91;6209334;28;20227;-88
2022/06/27 08:41:31;;;;;;;4.20;2.40;;;;;;;31.22;43.80;97594.59;6191500;28;20236;-88
2022/06/27 08:44:33;;;;;;;4.63;2.40;;;;;;;30.96;42.83;97599.72;6191425;28;20323;-88
2022/06/27 08:47:36;;;;;;;3.55;2.20;;;;;;;31.20;41.79;97592.13;6190260;28;20447;-88
2022/06/27 08:50:38;;;;;;;2.80;1.75;;;;;;;31.47;41.70;97586.63;6191088;28;20647;-87
2022/06/27 08:53:42;;;;;;;10.52;2.25;;;;;;;31.51;40.15;97576.88;6167538;28;20236;-87
2022/06/27 08:56:44;;;;;;;5.32;2.35;;;;;;;31.50;39.64;97581.50;6189102;28;20235;-87
2022/06/27 08:59:46;;;;;;;2.97;1.92;;;;;;;31.66;39.42;97584.38;6212429;28;20224;-87
2022/06/27 09:02:48;;;;;;;4.28;2.10;;;;;;;32.20;40.30;97585.91;6194683;28;20586;-87
2022/06/27 09:05:57;;;;;;;3.58;1.88;;;;;;;32.38;39.01;97592.84;6194717;28;20239;-87
2022/06/27 09:09:09;;;;;;;3.03;1.92;;;;;;;32.49;38.66;97574.59;6191198;28;20228;-87
2022/06/27 09:12:12;;;;;;;2.72;2.13;;;;;;;32.39;38.58;97585.47;6209162;28;20224;-87
2022/06/27 09:15:14;;;;;;;3.15;2.00;;;;;;;32.32;36.59;97577.50;6190554;28;20200;-87
2022/06/27 09:18:20;;;;;;;3.83;2.30;;;;;;;32.55;38.11;97582.53;6190563;28;20196;-87
2022/06/27 09:21:22;;;;;;;4.18;1.90;;;;;;;33.09;39.33;97584.13;6205008;28;20229;-87
2022/06/27 09:24:25;;;;;;;4.70;2.05;;;;;;;32.82;36.87;97574.22;6153477;28;20233;-88
2022/06/27 09:27:37;;;;;;;4.47;2.13;;;;;;;32.88;37.30;97585.97;6200637;28;20233;-86
2022/06/27 09:34:56;;;;;;;3.17;2.00;;;;;;;34.07;37.62;97577.38;6183793;28;20280;-86
2022/06/27 09:38:09;;;;;;;2.55;1.70;;;;;;;34.13;38.47;97580.13;6200559;28;20252;-86
2022/06/27 09:41:14;;;;;;;2.63;1.80;;;;;;;34.56;36.47;97574.00;6209650;28;20717;-87
2022/06/27 09:44:22;;;;;;;2.72;1.67;;;;;;;34.83;38.26;97578.34;6190321;28;20705;-86
2022/06/27 09:47:35;;;;;;;4.53;2.05;;;;;;;34.24;34.53;97577.06;6186615;28;20232;-87
2022/06/27 09:50:39;;;;;;;2.55;1.70;;;;;;;34.29;35.80;97565.31;6189016;28;20334;-86
2022/06/27 09:53:50;;;;;;;2.47;1.75;;;;;;;34.63;34.54;97563.56;6206461;28;20240;-87
2022/06/27 09:56:53;;;;;;;4.40;2.03;;;;;;;34.35;32.50;97554.06;6205969;28;20714;-87
2022/06/27 09:59:56;;;;;;;2.75;1.50;;;;;;;34.64;34.84;97564.41;6189463;28;20238;-87
2022/06/27 10:02:59;;;;;;;3.53;2.00;;;;;;;34.63;34.02;97560.84;6187201;28;20282;-86
2022/06/27 10:06:03;;;;;;;3.67;1.75;;;;;;;34.41;33.51;97563.94;6190573;28;20262;-87
2022/06/27 10:09:08;;;;;;;3.20;1.70;;;;;;;34.54;33.23;97551.53;6189271;28;20236;-86
2022/06/27 10:12:25;;;;;;;4.07;2.05;;;;;;;34.46;33.05;97562.25;6190237;28;20572;-86
2022/06/27 10:20:20;;;;;;;6.05;2.00;;;;;;;34.24;33.61;97563.38;6205150;28;20224;-87
2022/06/27 10:23:31;;;;;;;6.95;2.70;;;;;;;34.34;33.86;97568.84;6181182;28;20323;-86
2022/06/27 10:26:41;;;;;;;5.45;2.30;;;;;;;33.88;33.62;97562.63;6185487;28;20246;-87
2022/06/27 10:29:45;;;;;;;3.85;2.13;;;;;;;34.49;32.89;97567.19;6188906;28;20229;-87
2022/06/27 10:32:47;;;;;;;6.90;2.45;;;;;;;34.01;33.78;97566.72;6204252;28;20308;-87
2022/06/27 10:35:55;;;;;;;4.68;2.00;;;;;;;34.53;32.97;97558.13;6188403;28;20573;-86
2022/06/27 10:39:01;;;;;;;6.13;2.00;;;;;;;35.14;32.13;97563.31;6209784;28;20250;-87
2022/06/27 10:42:03;;;;;;;6.43;2.28;;;;;;;34.81;32.81;97559.41;6189675;28;20270;-86
2022/06/27 10:49:42;;;;;;;3.47;1.92;;;;;;;35.44;32.49;97538.44;6128889;28;20713;-87
2022/06/27 10:52:46;;;;;;;5.72;2.20;;;;;;;35.86;32.51;97531.50;6106309;29;20235;-87
2022/06/27 10:55:48;;;;;;;4.07;1.70;;;;;;;35.97;31.02;97527.56;6096539;28;20226;-85
2022/06/27 10:58:50;;;;;;;3.17;2.13;;;;;;;35.58;31.25;97540.53;6118804;28;20260;-87
2022/06/27 11:02:05;;;;;;;2.95;1.83;;;;;;;35.59;32.38;97550.41;6141809;28;20778;-89
2022/06/27 11:05:07;;;;;;;3.85;1.88;;;;;;;35.61;31.08;97535.28;6105959;29;20330;-87
2022/06/27 11:08:10;;;;;;;5.00;2.05;;;;;;;36.12;30.74;97530.16;6128870;28;20234;-86
2022/06/27 11:11:23;;;;;;;3.80;2.17;;;;;;;35.63;30.88;97524.84;6100573;29;20238;-87
2022/06/27 11:14:25;;;;;;;3.53;2.10;;;;;;;36.00;29.55;97535.22;6107282;29;20852;-86
2022/06/27 11:17:45;;;;;;;3.50;2.08;;;;;;;35.97;29.66;97526.75;6127536;28;20241;-86
2022/06/27 11:20:47;;;;;;;3.83;2.17;;;;;;;36.18;28.14;97528.16;6191356;28;20251;-86
2022/06/27 11:23:58;;;;;;;5.20;2.28;;;;;;;36.42;28.95;97530.97;6204445;28;20239;-86
2022/06/27 11:27:01;;;;;;;4.78;2.30;;;;;;;36.45;29.32;97519.34;6203890;28;20319;-87
2022/06/27 11:34:08;;;;;;;5.07;2.20;;;;;;;36.45;28.66;97514.69;6198307;28;20236;-86
2022/06/27 11:37:14;;;;;;;5.80;2.00;;;;;;;36.28;29.51;97513.53;6179932;28;20244;-86
2022/06/27 11:40:19;;;;;;;6.38;2.05;;;;;;;36.30;28.69;97514.88;6151588;28;20623;-86
2022/06/27 11:43:21;;;;;;;3.60;2.03;;;;;;;37.01;29.39;97515.91;6188616;28;20740;-86
2022/06/27 11:47:00;;;;;;;3.67;2.00;;;;;;;37.38;27.89;97513.16;6192224;28;20239;-87
2022/06/27 11:50:13;;;;;;;3.85;2.28;;;;;;;37.25;27.69;97514.72;6170362;28;20236;-86
2022/06/27 11:53:15;;;;;;;2.95;1.90;;;;;;;37.85;27.76;97509.31;6179852;28;20700;-86
2022/06/27 11:56:24;;;;;;;5.18;2.00;;;;;;;38.67;28.96;97503.91;6189028;28;20251;-85
2022/06/27 11:59:30;;;;;;;4.72;2.00;;;;;;;38.95;26.99;97507.41;6186933;28;20704;-87
2022/06/27 12:02:38;;;;;;;4.05;2.22;;;;;;;38.79;27.50;97497.03;6203272;28;20338;-86
2022/06/27 12:05:42;;;;;;;3.30;2.00;;;;;;;38.38;26.42;97498.69;6186874;28;20224;-87
2022/06/27 12:09:01;;;;;;;4.10;1.90;;;;;;;38.24;28.14;97491.53;6186810;28;21067;-87
2022/06/27 12:12:05;;;;;;;3.30;2.33;;;;;;;38.03;26.57;97497.41;6187269;28;20588;-87
2022/06/27 12:19:44;;;;;;;3.75;2.03;;;;;;;38.99;25.56;97478.09;6125527;28;20312;-87
2022/06/27 12:22:46;;;;;;;5.32;2.17;;;;;;;38.89;25.67;97488.53;6105990;29;20699;-87
2022/06/27 12:25:51;;;;;;;3.15;1.80;;;;;;;37.69;26.18;97494.19;6105210;29;20246;-87
2022/06/27 12:28:53;;;;;;;5.25;2.10;;;;;;;37.18;27.27;97489.50;6090374;29;20787;-86
2022/06/27 15:21:23;;;;;;;6.20;2.10;;;;;;;49.31;15.70;97408.25;4146904;28;20220;-87
2022/06/27 15:24:45;;;;;;;4.32;1.92;;;;;;;48.62;15.10;97410.50;6187243;28;20313;-89
2022/06/27 15:27:47;;;;;;;2.75;2.08;;;;;;;48.08;16.77;97399.69;6202628;28;20317;-87
2022/06/27 15:30:49;;;;;;;6.43;1.90;;;;;;;48.35;17.62;97401.28;6167548;28;20249;-87
2022/06/27 15:33:52;;;;;;;4.55;2.22;;;;;;;48.50;17.08;97393.94;6190636;28;20220;-87
2022/06/27 15:36:56;;;;;;;3.65;1.98;;;;;;;48.29;15.12;97393.59;6181959;28;20232;-88
2022/06/27 15:39:58;;;;;;;4.38;1.92;;;;;;;48.41;16.32;97394.19;6183334;28;20315;-88
2022/06/27 15:43:00;;;;;;;5.57;1.98;;;;;;;47.94;18.67;97397.41;6201147;28;20268;-88
2022/06/27 15:46:03;;;;;;;5.07;2.20;;;;;;;48.26;18.26;97392.34;6199346;28;20681;-89
2022/06/27 15:49:06;;;;;;;3.80;2.42;;;;;;;47.46;16.40;97386.94;6204768;28;20271;-87
2022/06/27 15:52:08;;;;;;;6.05;2.13;;;;;;;47.32;19.48;97391.06;6188947;28;20237;-87
2022/06/27 15:55:12;;;;;;;4.22;2.30;;;;;;;47.20;19.66;97387.63;6191853;28;20232;-87
2022/06/27 15:58:16;;;;;;;6.45;2.28;;;;;;;47.30;18.46;97395.41;6188540;28;20263;-87
2022/06/27 16:01:20;;;;;;;5.07;2.33;;;;;;;46.21;19.27;97389.81;6186190;28;20719;-86
2022/06/27 16:04:23;;;;;;;3.85;2.08;;;;;;;46.39;18.98;97379.09;6188389;28;20228;-87
2022/06/27 16:07:25;;;;;;;3.67;2.35;;;;;;;46.67;20.12;97380.91;6204015;28;20224;-87
2022/06/27 16:10:28;;;;;;;3.50;2.00;;;;;;;46.74;19.54;97384.66;6187805;28;20248;-87
2022/06/27 16:13:30;;;;;;;4.28;1.90;;;;;;;46.78;19.77;97391.16;6188117;28;20224;-88
2022/06/27 16:16:32;;;;;;;5.40;2.35;;;;;;;44.93;19.78;97391.13;6186537;28;20724;-88
2022/06/27 16:19:35;;;;;;;3.40;1.98;;;;;;;44.66;20.48;97377.97;6187252;28;20224;-87
2022/06/27 16:22:57;;;;;;;3.58;1.90;;;;;;;44.91;21.29;97385.13;6191533;28;20246;-87
2022/06/27 16:25:59;;;;;;;3.97;2.10;;;;;;;44.37;21.36;97382.66;6191516;28;20228;-87
2022/06/27 16:29:02;;;;;;;5.78;2.35;;;;;;;44.45;22.71;97370.59;6206248;28;20318;-88
2022/06/27 16:32:04;;;;;;;6.07;2.20;;;;;;;44.48;22.41;97374.66;6188293;28;20400;-87
2022/06/27 16:35:07;;;;;;;5.72;2.60;;;;;;;43.93;22.14;97369.66;6203981;28;20224;-88
2022/06/27 16:38:11;;;;;;;2.45;1.90;;;;;;;43.71;21.78;97363.41;6180430;28;20233;-87
2022/06/27 16:41:13;;;;;;;4.43;2.08;;;;;;;43.16;23.69;97371.31;6178823;28;20225;-87
2022/06/27 16:44:15;;;;;;;5.93;3.58;;;;;;;41.24;24.32;97377.44;6171713;28;20750;-88
2022/06/27 16:47:17;;;;;;;5.65;3.58;;;;;;;38.76;29.63;97369.59;6202841;28;20691;-87
2022/06/27 16:50:19;;;;;;;6.07;2.58;;;;;;;36.94;33.01;97370.41;6180602;28;20228;-87
2022/06/27 16:53:22;;;;;;;5.05;1.83;;;;;;;35.16;36.27;97367.09;6188426;28;20597;-87
2022/06/27 16:56:25;;;;;;;4.50;2.33;;;;;;;34.06;38.20;97364.00;6190037;28;20669;-88
2022/06/27 16:59:27;;;;;;;7.40;4.18;;;;;;;33.65;39.18;97364.13;6207814;28;20872;-87
2022/06/27 17:02:29;;;;;;;6.60;3.05;;;;;;;32.89;40.29;97372.44;6173052;28;20696;-87
2022/06/27 17:05:35;;;;;;;5.65;2.60;;;;;;;32.67;40.31;97360.91;6196707;28;20232;-87
2022/06/27 17:08:38;;;;;;;3.35;2.42;;;;;;;32.26;39.76;97373.69;6190371;28;20710;-87
2022/06/27 17:11:41;;;;;;;4.97;2.40;;;;;;;32.22;41.71;97362.50;6206724;28;20293;-87
2022/06/27 17:14:43;;;;;;;4.32;3.03;;;;;;;31.89;43.37;97354.69;6191369;28;20236;-87
2022/06/27 17:17:45;;;;;;;5.43;3.20;;;;;;;31.40;44.21;97359.63;6189987;28;20243;-87
2022/06/27 17:20:53;;;;;;;4.43;2.70;;;;;;;31.10;45.33;97365.69;6207275;28;20244;-87
2022/06/27 17:23:56;;;;;;;5.15;2.47;;;;;;;30.71;45.90;97357.75;6165752;28;20323;-87
2022/06/27 17:27:04;;;;;;;6.63;2.88;;;;;;;30.46;47.51;97365.63;6181574;28;20236;-87
2022/06/27 17:30:08;;;;;;;7.93;2.80;;;;;;;30.31;47.67;97365.50;6200657;28;20228;-87
2022/06/27 17:33:11;;;;;;;4.90;3.30;;;;;;;30.17;48.39;97375.97;6189786;28;20580;-87
2022/06/27 17:36:13;;;;;;;6.97;2.83;;;;;;;29.97;48.52;97371.09;6189864;28;20213;-87
2022/06/27 17:39:15;;;;;;;5.60;2.85;;;;;;;29.88;49.16;97367.16;6190047;28;20674;-86
2022/06/27 17:42:18;;;;;;;5.15;3.15;;;;;;;29.69;49.55;97371.25;6189631;28;20339;-87
2022/06/27 17:45:24;;;;;;;3.85;2.65;;;;;;;29.38;50.45;97378.19;6208677;28;20659;-87
2022/06/27 17:48:26;;;;;;;5.72;3.65;;;;;;;29.24;51.49;97385.84;6190294;28;20310;-86
2022/06/27 17:51:28;;;;;;;5.28;3.10;;;;;;;29.24;51.32;97385.84;6190453;28;20216;-86
2022/06/27 17:54:31;;;;;;;5.97;3.25;;;;;;;29.25;51.56;97387.47;6206286;28;20362;-87
2022/06/27 17:57:35;;;;;;;9.57;4.05;;;;;;;29.00;51.83;97387.94;6189722;28;20231;-87
2022/06/27 18:00:37;;;;;;;5.35;2.97;;;;;;;28.76;52.60;97386.41;6179177;28;20229;-86
2022/06/27 18:03:39;;;;;;;7.38;5.88;;;;;;;28.56;53.20;97397.72;6188929;28;20247;-87
2022/06/27 18:06:42;;;;;;;5.53;3.55;;;;;;;28.54;53.17;97401.78;6204850;28;20224;-87
2022/06/27 18:09:44;;;;;;;7.00;5.35;;;;;;;28.47;53.45;97409.22;6204734;28;20255;-87
2022/06/27 18:12:46;;;;;;;4.15;3.30;;;;;;;28.49;53.51;97401.66;6205494;28;20672;-87
2022/06/27 18:15:49;;;;;;;5.38;3.13;;;;;;;28.40;53.98;97400.41;6210097;28;20245;-87
2022/06/27 18:18:51;;;;;;;5.50;4.22;;;;;;;28.36;53.55;97389.22;6194184;28;20707;-87
2022/06/27 18:21:54;;;;;;;3.75;2.92;;;;;;;28.26;54.15;97392.56;6205663;28;20715;-87
2022/06/27 18:24:56;;;;;;;3.42;2.70;;;;;;;28.15;54.43;97376.31;6204626;28;20239;-87
2022/06/27 18:27:58;;;;;;;4.82;3.58;;;;;;;27.76;55.77;97384.19;6189230;28;20255;-87
2022/06/27 18:31:02;;;;;;;5.03;3.03;;;;;;;27.67;55.62;97377.50;6188504;28;20259;-87
2022/06/27 18:34:04;;;;;;;11.65;8.55;;;;;;;27.48;56.48;97379.50;6205118;28;20235;-87